createdAt,value
2023-03-03T00:01:19.526Z,97075.38
2023-03-03T00:06:40.459Z,97073.06
2023-03-03T00:12:06.296Z,97081.72
2023-03-03T00:17:32.843Z,97078.28
2023-03-03T00:22:53.867Z,97083.91
2023-03-03T00:28:48.208Z,97085.28
2023-03-03T00:34:27.714Z,97085.97
2023-03-03T00:39:48.886Z,97091.75
2023-03-03T00:45:27.523Z,97078.84
2023-03-03T00:50:48.985Z,97084.72
2023-03-03T00:56:09.775Z,97089.28
2023-03-03T01:01:30.675Z,97080.19
2023-03-03T01:06:51.215Z,97081.28
2023-03-03T01:12:12.357Z,97077.41
2023-03-03T01:17:34.416Z,97068.88
2023-03-03T01:22:55.024Z,97069.69
2023-03-03T01:28:16.203Z,97067.59
2023-03-03T01:33:36.976Z,97059.25
2023-03-03T01:38:57.763Z,97062.59
2023-03-03T01:44:18.476Z,97049.97
2023-03-03T01:50:04.448Z,97047.78
2023-03-03T01:55:30.905Z,97049.69
2023-03-03T02:00:57.747Z,97048.69
2023-03-03T02:06:22.771Z,97059.44
2023-03-03T02:11:45.751Z,97047.50
2023-03-03T02:17:06.722Z,97050.59
2023-03-03T02:22:40.228Z,97049.88
2023-03-03T02:28:02.304Z,97046.25
2023-03-03T02:33:23.491Z,97055.66
2023-03-03T02:38:59.299Z,97038.41
2023-03-03T02:44:26.618Z,97035.31
2023-03-03T02:49:47.377Z,97039.84
2023-03-03T02:55:08.719Z,97047.19
2023-03-03T03:00:29.729Z,97044.56
2023-03-03T03:05:50.260Z,97039.19
2023-03-03T03:11:14.411Z,97048.25
2023-03-03T03:16:36.165Z,97051.63
2023-03-03T03:21:56.910Z,97051.25
2023-03-03T03:27:19.371Z,97053.81
2023-03-03T03:32:42.500Z,97052.91
2023-03-03T03:38:04.198Z,97054.31
2023-03-03T03:43:26.849Z,97056.97
2023-03-03T03:48:47.907Z,97048.69
2023-03-03T03:54:11.716Z,97046.78
2023-03-03T03:59:34.031Z,97045.88
2023-03-03T04:04:54.618Z,97047.47
2023-03-03T04:10:15.403Z,97038.25
2023-03-03T04:15:36.126Z,97033.09
2023-03-03T04:20:57.652Z,97029.25
2023-03-03T04:26:19.728Z,97032.69
2023-03-03T04:31:42.335Z,97036.75
2023-03-03T04:37:05.768Z,97051.59
2023-03-03T04:42:28.295Z,97052.69
2023-03-03T04:47:49.230Z,97054.56
2023-03-03T04:53:11.016Z,97056.38
2023-03-03T04:58:33.214Z,97053.41
2023-03-03T05:03:53.769Z,97048.06
2023-03-03T05:09:14.480Z,97056.72
2023-03-03T05:14:35.189Z,97061.16
2023-03-03T05:19:57.349Z,97061.84
2023-03-03T05:25:18.230Z,97059.91
2023-03-03T05:30:39.242Z,97074.88
2023-03-03T05:36:00.348Z,97069.53
2023-03-03T05:41:21.061Z,97075.66
2023-03-03T05:46:42.767Z,97074.06
2023-03-03T05:52:04.175Z,97091.66
2023-03-03T05:57:24.910Z,97106.91
2023-03-03T06:02:46.206Z,97118.66
2023-03-03T06:08:07.233Z,97111.69
2023-03-03T06:13:28.076Z,97116.78
2023-03-03T06:18:48.996Z,97121.22
2023-03-03T06:24:09.876Z,97121.47
2023-03-03T06:29:30.836Z,97131.06
2023-03-03T06:34:51.531Z,97141.09
2023-03-03T06:40:12.757Z,97155.31
2023-03-03T06:45:33.521Z,97165.53
2023-03-03T06:50:54.122Z,97171.22
2023-03-03T06:56:14.876Z,97178.56
2023-03-03T07:01:38.456Z,97176.41
2023-03-03T07:07:16.888Z,97182.06
2023-03-03T07:12:37.960Z,97188.72
2023-03-03T07:17:59.745Z,97193.41
2023-03-03T07:23:42.599Z,97195.47
2023-03-03T07:29:33.377Z,97201.25
2023-03-03T07:34:55.577Z,97188.50
2023-03-03T07:40:34.895Z,97200.31
2023-03-03T07:46:11.221Z,97203.75
2023-03-03T07:51:42.102Z,97206.75
2023-03-03T07:57:12.288Z,97217.03
2023-03-03T08:02:41.556Z,97213.63
2023-03-03T08:08:37.031Z,97199.91
2023-03-03T08:13:57.758Z,97206.22
2023-03-03T08:19:18.896Z,97212.47
2023-03-03T08:24:39.393Z,97211.81
2023-03-03T08:30:00.127Z,97216.97
2023-03-03T08:35:20.926Z,97216.91
2023-03-03T08:40:42.586Z,97226.00
2023-03-03T08:46:06.171Z,97218.91
2023-03-03T08:51:27.431Z,97232.03
2023-03-03T08:56:48.451Z,97243.69
2023-03-03T09:02:09.376Z,97235.44
2023-03-03T09:07:30.609Z,97236.75
2023-03-03T09:12:51.837Z,97239.72
2023-03-03T09:18:15.735Z,97234.47
2023-03-03T09:23:38.745Z,97234.13
2023-03-03T09:29:05.108Z,97231.13
2023-03-03T09:34:42.729Z,97245.38
2023-03-03T09:40:33.212Z,97225.75
2023-03-03T09:46:23.539Z,97234.06
2023-03-03T09:51:53.364Z,97234.25
2023-03-03T09:57:34.270Z,97235.47
2023-03-03T10:03:22.694Z,97237.28
2023-03-03T10:09:12.007Z,97230.03
2023-03-03T10:15:17.397Z,97243.38
2023-03-03T10:20:59.624Z,97248.56
2023-03-03T10:26:34.837Z,97250.63
2023-03-03T10:32:03.138Z,97242.34
2023-03-03T10:37:27.731Z,97241.44
2023-03-03T10:43:31.883Z,97240.69
2023-03-03T10:49:06.246Z,97233.25
2023-03-03T10:54:38.671Z,97230.47
2023-03-03T11:00:16.767Z,97228.53
2023-03-03T11:05:48.278Z,97233.31
2023-03-03T11:11:15.322Z,97230.91
2023-03-03T11:17:16.284Z,97238.63
2023-03-03T11:22:55.086Z,97234.53
2023-03-03T11:28:21.988Z,97225.00
2023-03-03T11:33:56.475Z,97210.59
2023-03-03T11:39:22.243Z,97214.38
2023-03-03T11:44:47.937Z,97212.72
2023-03-03T11:50:14.218Z,97207.25
2023-03-03T11:55:41.416Z,97200.16
2023-03-03T12:01:20.059Z,97208.38
2023-03-03T12:07:12.903Z,97199.25
2023-03-03T12:13:05.128Z,97184.13
2023-03-03T12:18:38.195Z,97187.44
2023-03-03T12:24:26.213Z,97178.13
2023-03-03T12:30:20.373Z,97185.69
2023-03-03T12:35:56.240Z,97184.75
2023-03-03T12:41:20.511Z,97174.03
2023-03-03T12:47:02.373Z,97173.66
2023-03-03T12:52:51.419Z,97166.34
2023-03-03T12:58:24.133Z,97159.59
2023-03-03T13:03:55.710Z,97159.78
2023-03-03T13:09:41.176Z,97161.22
2023-03-03T13:15:16.354Z,97153.31
2023-03-03T13:20:46.255Z,97143.16
2023-03-03T13:26:50.137Z,97153.72
2023-03-03T13:32:23.282Z,97145.16
2023-03-03T13:37:52.675Z,97134.16
2023-03-03T13:43:15.995Z,97136.88
2023-03-03T13:48:46.722Z,97136.25
2023-03-03T13:54:20.548Z,97138.28
2023-03-03T14:00:04.782Z,97138.09
2023-03-03T14:05:48.582Z,97131.16
2023-03-03T14:11:24.046Z,97128.19
2023-03-03T14:16:54.863Z,97121.56
2023-03-03T14:22:40.232Z,97123.47
2023-03-03T14:28:16.119Z,97120.25
2023-03-03T14:33:37.122Z,97124.69
2023-03-03T14:38:57.978Z,97126.91
2023-03-03T14:44:36.171Z,97125.81
2023-03-03T14:50:00.422Z,97129.38
2023-03-03T14:55:35.986Z,97130.09
2023-03-03T15:01:12.333Z,97124.25
2023-03-03T15:06:48.477Z,97131.50
2023-03-03T15:12:24.830Z,97122.78
2023-03-03T15:18:05.334Z,97127.13
2023-03-03T15:23:51.631Z,97128.78
2023-03-03T15:29:22.568Z,97129.09
2023-03-03T15:35:12.145Z,97121.78
2023-03-03T15:40:53.412Z,97127.59
2023-03-03T15:46:35.197Z,97121.69
2023-03-03T15:52:21.467Z,97126.69
2023-03-03T15:58:33.356Z,97126.31
2023-03-03T16:04:09.691Z,97115.78
2023-03-03T16:09:52.299Z,97125.00
2023-03-03T16:15:35.354Z,97132.81
2023-03-03T16:21:02.377Z,97131.50
2023-03-03T16:26:47.734Z,97133.63
2023-03-03T16:32:22.833Z,97136.16
2023-03-03T16:38:05.679Z,97137.78
2023-03-03T16:43:38.491Z,97137.94
2023-03-03T16:49:16.990Z,97146.28
2023-03-03T16:54:58.629Z,97157.31
2023-03-03T17:00:28.576Z,97162.75
2023-03-03T17:05:58.135Z,97159.59
2023-03-03T17:11:35.088Z,97170.91
2023-03-03T17:17:01.199Z,97184.56
2023-03-03T17:22:46.427Z,97181.69
2023-03-03T17:28:07.245Z,97188.59
2023-03-03T17:33:57.447Z,97189.16
2023-03-03T17:39:51.953Z,97191.34
2023-03-03T17:45:15.700Z,97191.16
2023-03-03T17:50:59.100Z,97190.16
2023-03-03T17:56:40.178Z,97183.09
2023-03-03T18:02:16.579Z,97184.44
2023-03-03T18:08:04.740Z,97180.03
2023-03-03T18:13:50.449Z,97185.84
2023-03-03T18:19:52.616Z,97194.22
2023-03-03T18:25:17.107Z,97189.66
2023-03-03T18:30:46.993Z,97193.31
2023-03-03T18:36:36.395Z,97201.69
2023-03-03T18:42:11.542Z,97207.16
2023-03-03T18:47:57.694Z,97204.81
2023-03-03T18:53:31.073Z,97208.38
2023-03-03T18:58:53.691Z,97206.44
2023-03-03T19:04:16.349Z,97199.91
2023-03-03T19:09:57.144Z,97205.19
2023-03-03T19:15:30.325Z,97197.56
2023-03-03T19:21:23.541Z,97203.72
2023-03-03T19:27:09.865Z,97200.59
2023-03-03T19:32:48.489Z,97212.75
2023-03-03T19:38:32.353Z,97217.41
2023-03-03T19:44:22.123Z,97221.31
2023-03-03T19:50:10.357Z,97222.09
2023-03-03T19:55:35.067Z,97222.91
2023-03-03T20:00:55.705Z,97230.91
2023-03-03T20:06:44.406Z,97237.22
2023-03-03T20:12:16.469Z,97230.78
2023-03-03T20:17:47.456Z,97237.94
2023-03-03T20:23:26.710Z,97238.19
2023-03-03T20:29:15.837Z,97243.53
2023-03-03T20:35:03.224Z,97223.91
2023-03-03T20:40:33.553Z,97228.31
2023-03-03T20:46:08.256Z,97231.09
2023-03-03T20:52:02.181Z,97229.59
2023-03-03T20:57:38.661Z,97229.75
2023-03-03T21:03:06.294Z,97242.50
2023-03-03T21:08:48.573Z,97227.94
2023-03-03T21:14:33.518Z,97232.19
2023-03-03T21:19:54.592Z,97223.34
2023-03-03T21:25:40.228Z,97231.63
2023-03-03T21:31:15.488Z,97229.25
2023-03-03T21:36:36.709Z,97228.72
2023-03-03T21:42:09.484Z,97218.25
2023-03-03T21:47:31.261Z,97214.03
2023-03-03T21:52:52.402Z,97214.94
2023-03-03T21:58:13.161Z,97207.78
2023-03-03T22:03:34.416Z,97207.59
2023-03-03T22:08:55.342Z,97207.13
2023-03-03T22:14:16.122Z,97204.47
2023-03-03T22:19:38.304Z,97202.66
2023-03-03T22:24:59.044Z,97200.53
2023-03-03T22:30:19.919Z,97198.16
2023-03-03T22:35:40.826Z,97194.28
2023-03-03T22:41:01.899Z,97194.34
2023-03-03T22:46:23.175Z,97202.09
2023-03-03T22:51:44.081Z,97195.97
2023-03-03T22:57:04.735Z,97181.06
2023-03-03T23:02:25.791Z,97176.78
2023-03-03T23:07:46.772Z,97173.16
2023-03-03T23:13:08.794Z,97170.06
2023-03-03T23:18:29.625Z,97163.72
2023-03-03T23:23:50.403Z,97164.97
2023-03-03T23:29:10.982Z,97165.06
2023-03-03T23:34:32.536Z,97167.91
2023-03-03T23:39:53.123Z,97157.06
2023-03-03T23:45:14.263Z,97161.84
2023-03-03T23:50:37.256Z,97156.34
2023-03-03T23:55:58.314Z,97159.38
